Choctaw, Mississippi
Current Conditions -  °F | °C
As of 9:05 PM on Monday 22 Dec 2014 (Local Time) from KNMM Reporting Station
Haze Haze  
Wind Chill: 15°   Ceiling: 200
Heat Index: 15°   Visibility: 0.75mi
Dew Point: 14°   Wind: 7mph
Humidity: 96%   Direction: 130°SE
Pressure: 29.73"   Gusts: NA
Location:  32.751°N, 89.1208°W
Report Text: KNMM 230305Z 13006KT 3/4SM BR VV002 15/14 A2973 RMK AO2 T01500144
Loading
Personal Weather Stations






























Interactive Weather Map New forecast layout! Learn more

10-Day Weather Forecast

Advertisements
Track Severe Weather on mobile